sensor_id;sensor_type;location;lat;lon;timestamp;P1;durP1;ratioP1;P2;durP2;ratioP2
27213;SDS011;14723;55.814;37.460;2023-01-19T00:02:06;34.10;;;14.38;;
27213;SDS011;14723;55.814;37.460;2023-01-19T00:05:11;31.30;;;14.48;;
27213;SDS011;14723;55.814;37.460;2023-01-19T00:08:17;34.80;;;14.65;;
27213;SDS011;14723;55.814;37.460;2023-01-19T00:11:22;33.78;;;14.25;;
27213;SDS011;14723;55.814;37.460;2023-01-19T00:14:27;29.52;;;13.55;;
27213;SDS011;14723;55.814;37.460;2023-01-19T00:17:35;29.38;;;14.35;;
27213;SDS011;14723;55.814;37.460;2023-01-19T00:20:43;28.75;;;12.93;;
27213;SDS011;14723;55.814;37.460;2023-01-19T00:23:49;27.33;;;13.30;;
27213;SDS011;14723;55.814;37.460;2023-01-19T00:26:55;31.05;;;14.05;;
27213;SDS011;14723;55.814;37.460;2023-01-19T00:30:00;30.55;;;13.10;;
27213;SDS011;14723;55.814;37.460;2023-01-19T00:33:09;27.00;;;14.20;;
27213;SDS011;14723;55.814;37.460;2023-01-19T00:36:15;29.25;;;12.20;;
27213;SDS011;14723;55.814;37.460;2023-01-19T00:39:20;27.98;;;12.70;;
27213;SDS011;14723;55.814;37.460;2023-01-19T00:42:26;26.85;;;11.73;;
27213;SDS011;14723;55.814;37.460;2023-01-19T00:45:49;25.40;;;12.43;;
27213;SDS011;14723;55.814;37.460;2023-01-19T00:48:57;27.05;;;11.73;;
27213;SDS011;14723;55.814;37.460;2023-01-19T00:52:03;25.98;;;11.73;;
27213;SDS011;14723;55.814;37.460;2023-01-19T00:55:09;24.15;;;11.48;;
27213;SDS011;14723;55.814;37.460;2023-01-19T00:58:15;27.80;;;11.93;;
27213;SDS011;14723;55.814;37.460;2023-01-19T01:01:20;28.13;;;13.50;;
27213;SDS011;14723;55.814;37.460;2023-01-19T01:04:48;28.42;;;12.38;;
27213;SDS011;14723;55.814;37.460;2023-01-19T01:07:57;25.90;;;11.98;;
27213;SDS011;14723;55.814;37.460;2023-01-19T01:11:03;26.80;;;11.57;;
27213;SDS011;14723;55.814;37.460;2023-01-19T01:14:09;26.10;;;12.30;;
27213;SDS011;14723;55.814;37.460;2023-01-19T01:17:15;28.65;;;12.15;;
27213;SDS011;14723;55.814;37.460;2023-01-19T01:20:28;25.77;;;12.05;;
27213;SDS011;14723;55.814;37.460;2023-01-19T01:23:35;28.63;;;12.88;;
27213;SDS011;14723;55.814;37.460;2023-01-19T01:26:41;26.85;;;12.68;;
27213;SDS011;14723;55.814;37.460;2023-01-19T01:29:47;30.40;;;12.77;;
27213;SDS011;14723;55.814;37.460;2023-01-19T01:32:52;27.45;;;13.02;;
27213;SDS011;14723;55.814;37.460;2023-01-19T01:36:00;29.65;;;12.57;;
27213;SDS011;14723;55.814;37.460;2023-01-19T01:39:05;27.63;;;12.75;;
27213;SDS011;14723;55.814;37.460;2023-01-19T01:42:13;27.67;;;12.55;;
27213;SDS011;14723;55.814;37.460;2023-01-19T01:45:25;27.73;;;12.57;;
27213;SDS011;14723;55.814;37.460;2023-01-19T01:48:32;31.55;;;13.10;;
27213;SDS011;14723;55.814;37.460;2023-01-19T01:51:41;24.83;;;11.77;;
27213;SDS011;14723;55.814;37.460;2023-01-19T01:54:48;29.20;;;11.65;;
27213;SDS011;14723;55.814;37.460;2023-01-19T01:57:54;28.65;;;12.88;;
27213;SDS011;14723;55.814;37.460;2023-01-19T02:01:01;27.80;;;12.60;;
27213;SDS011;14723;55.814;37.460;2023-01-19T02:04:19;31.27;;;13.88;;
27213;SDS011;14723;55.814;37.460;2023-01-19T02:07:28;28.40;;;13.15;;
27213;SDS011;14723;55.814;37.460;2023-01-19T02:10:48;30.90;;;12.57;;
27213;SDS011;14723;55.814;37.460;2023-01-19T02:14:05;30.33;;;12.88;;
27213;SDS011;14723;55.814;37.460;2023-01-19T02:17:11;23.92;;;12.20;;
27213;SDS011;14723;55.814;37.460;2023-01-19T02:20:36;26.67;;;12.13;;
27213;SDS011;14723;55.814;37.460;2023-01-19T02:23:47;23.02;;;11.57;;
27213;SDS011;14723;55.814;37.460;2023-01-19T02:26:53;28.17;;;12.20;;
27213;SDS011;14723;55.814;37.460;2023-01-19T02:29:59;27.02;;;11.90;;
27213;SDS011;14723;55.814;37.460;2023-01-19T02:33:05;22.88;;;11.38;;
27213;SDS011;14723;55.814;37.460;2023-01-19T02:36:11;24.67;;;11.77;;
27213;SDS011;14723;55.814;37.460;2023-01-19T02:39:24;24.70;;;12.87;;
27213;SDS011;14723;55.814;37.460;2023-01-19T02:42:31;23.27;;;11.15;;
27213;SDS011;14723;55.814;37.460;2023-01-19T02:45:38;23.83;;;10.98;;
27213;SDS011;14723;55.814;37.460;2023-01-19T02:48:44;26.75;;;12.00;;
27213;SDS011;14723;55.814;37.460;2023-01-19T02:51:49;24.33;;;11.98;;
27213;SDS011;14723;55.814;37.460;2023-01-19T02:55:00;26.92;;;12.35;;
27213;SDS011;14723;55.814;37.460;2023-01-19T02:58:09;26.25;;;11.50;;
27213;SDS011;14723;55.814;37.460;2023-01-19T03:01:17;25.77;;;11.73;;
27213;SDS011;14723;55.814;37.460;2023-01-19T03:04:27;24.73;;;11.90;;
27213;SDS011;14723;55.814;37.460;2023-01-19T03:07:41;22.23;;;11.23;;
27213;SDS011;14723;55.814;37.460;2023-01-19T03:10:52;28.13;;;11.63;;
27213;SDS011;14723;55.814;37.460;2023-01-19T03:14:03;26.42;;;11.55;;
27213;SDS011;14723;55.814;37.460;2023-01-19T03:17:10;25.17;;;11.60;;
27213;SDS011;14723;55.814;37.460;2023-01-19T03:20:18;20.83;;;10.77;;
27213;SDS011;14723;55.814;37.460;2023-01-19T03:23:26;26.63;;;11.15;;
27213;SDS011;14723;55.814;37.460;2023-01-19T03:26:36;23.70;;;10.77;;
27213;SDS011;14723;55.814;37.460;2023-01-19T03:29:42;24.80;;;12.07;;
27213;SDS011;14723;55.814;37.460;2023-01-19T03:32:50;24.98;;;11.23;;
27213;SDS011;14723;55.814;37.460;2023-01-19T03:35:57;23.40;;;11.00;;
27213;SDS011;14723;55.814;37.460;2023-01-19T03:39:06;21.88;;;11.57;;
27213;SDS011;14723;55.814;37.460;2023-01-19T03:42:14;21.80;;;10.82;;
27213;SDS011;14723;55.814;37.460;2023-01-19T03:48:25;22.38;;;11.05;;
27213;SDS011;14723;55.814;37.460;2023-01-19T03:51:30;23.30;;;10.88;;
27213;SDS011;14723;55.814;37.460;2023-01-19T03:54:40;23.42;;;10.15;;
27213;SDS011;14723;55.814;37.460;2023-01-19T03:57:47;22.52;;;11.25;;
27213;SDS011;14723;55.814;37.460;2023-01-19T04:00:53;25.85;;;11.07;;
27213;SDS011;14723;55.814;37.460;2023-01-19T04:03:59;20.13;;;10.07;;
27213;SDS011;14723;55.814;37.460;2023-01-19T04:07:04;23.73;;;11.13;;
27213;SDS011;14723;55.814;37.460;2023-01-19T04:10:10;25.10;;;11.00;;
27213;SDS011;14723;55.814;37.460;2023-01-19T04:13:19;20.75;;;10.02;;
27213;SDS011;14723;55.814;37.460;2023-01-19T04:16:24;26.13;;;10.88;;
27213;SDS011;14723;55.814;37.460;2023-01-19T04:19:30;23.08;;;10.48;;
27213;SDS011;14723;55.814;37.460;2023-01-19T04:22:35;20.05;;;10.07;;
27213;SDS011;14723;55.814;37.460;2023-01-19T04:25:41;20.40;;;10.27;;
27213;SDS011;14723;55.814;37.460;2023-01-19T04:28:49;19.08;;;8.85;;
27213;SDS011;14723;55.814;37.460;2023-01-19T04:31:55;21.50;;;10.20;;
27213;SDS011;14723;55.814;37.460;2023-01-19T04:35:00;19.85;;;9.40;;
27213;SDS011;14723;55.814;37.460;2023-01-19T04:38:06;20.20;;;10.30;;
27213;SDS011;14723;55.814;37.460;2023-01-19T04:41:11;20.10;;;10.13;;
27213;SDS011;14723;55.814;37.460;2023-01-19T04:44:19;22.40;;;10.63;;
27213;SDS011;14723;55.814;37.460;2023-01-19T04:47:24;20.10;;;10.70;;
27213;SDS011;14723;55.814;37.460;2023-01-19T04:50:30;21.08;;;10.68;;
27213;SDS011;14723;55.814;37.460;2023-01-19T04:53:35;20.15;;;10.23;;
27213;SDS011;14723;55.814;37.460;2023-01-19T04:56:41;20.38;;;10.80;;
27213;SDS011;14723;55.814;37.460;2023-01-19T04:59:49;21.25;;;10.45;;
27213;SDS011;14723;55.814;37.460;2023-01-19T05:02:54;23.93;;;12.47;;
27213;SDS011;14723;55.814;37.460;2023-01-19T05:06:00;25.15;;;11.52;;
27213;SDS011;14723;55.814;37.460;2023-01-19T05:09:05;20.95;;;11.05;;
27213;SDS011;14723;55.814;37.460;2023-01-19T05:12:14;22.70;;;11.13;;
27213;SDS011;14723;55.814;37.460;2023-01-19T05:15:22;28.67;;;11.88;;
27213;SDS011;14723;55.814;37.460;2023-01-19T05:18:27;25.08;;;10.75;;
27213;SDS011;14723;55.814;37.460;2023-01-19T05:21:37;20.52;;;10.45;;
27213;SDS011;14723;55.814;37.460;2023-01-19T05:24:42;25.77;;;11.70;;
27213;SDS011;14723;55.814;37.460;2023-01-19T05:27:48;24.45;;;12.00;;
27213;SDS011;14723;55.814;37.460;2023-01-19T05:30:56;26.23;;;11.25;;
27213;SDS011;14723;55.814;37.460;2023-01-19T05:34:02;24.38;;;11.32;;
27213;SDS011;14723;55.814;37.460;2023-01-19T05:37:07;21.92;;;11.82;;
27213;SDS011;14723;55.814;37.460;2023-01-19T05:40:12;20.52;;;10.70;;
27213;SDS011;14723;55.814;37.460;2023-01-19T05:43:18;24.20;;;11.68;;
27213;SDS011;14723;55.814;37.460;2023-01-19T05:46:26;24.13;;;12.52;;
27213;SDS011;14723;55.814;37.460;2023-01-19T05:49:31;24.00;;;13.30;;
27213;SDS011;14723;55.814;37.460;2023-01-19T05:52:37;27.35;;;12.55;;
27213;SDS011;14723;55.814;37.460;2023-01-19T05:55:42;23.80;;;12.80;;
27213;SDS011;14723;55.814;37.460;2023-01-19T05:58:47;31.27;;;14.73;;
27213;SDS011;14723;55.814;37.460;2023-01-19T06:01:55;23.42;;;11.98;;
27213;SDS011;14723;55.814;37.460;2023-01-19T06:05:01;23.25;;;11.85;;
27213;SDS011;14723;55.814;37.460;2023-01-19T06:08:06;25.52;;;12.70;;
27213;SDS011;14723;55.814;37.460;2023-01-19T06:11:12;25.45;;;12.82;;
27213;SDS011;14723;55.814;37.460;2023-01-19T06:14:17;24.75;;;13.10;;
27213;SDS011;14723;55.814;37.460;2023-01-19T06:17:25;23.33;;;11.95;;
27213;SDS011;14723;55.814;37.460;2023-01-19T06:20:30;25.92;;;12.85;;
27213;SDS011;14723;55.814;37.460;2023-01-19T06:23:35;26.35;;;12.23;;
27213;SDS011;14723;55.814;37.460;2023-01-19T06:26:41;24.00;;;12.60;;
27213;SDS011;14723;55.814;37.460;2023-01-19T06:29:47;26.27;;;12.50;;
27213;SDS011;14723;55.814;37.460;2023-01-19T06:32:55;27.02;;;12.35;;
27213;SDS011;14723;55.814;37.460;2023-01-19T06:39:06;28.60;;;12.52;;
27213;SDS011;14723;55.814;37.460;2023-01-19T06:42:11;28.88;;;13.23;;
27213;SDS011;14723;55.814;37.460;2023-01-19T06:45:17;30.30;;;13.75;;
27213;SDS011;14723;55.814;37.460;2023-01-19T06:48:25;26.10;;;12.55;;
27213;SDS011;14723;55.814;37.460;2023-01-19T06:51:31;29.75;;;13.02;;
27213;SDS011;14723;55.814;37.460;2023-01-19T06:54:36;24.52;;;13.40;;
27213;SDS011;14723;55.814;37.460;2023-01-19T06:57:42;27.88;;;13.48;;
27213;SDS011;14723;55.814;37.460;2023-01-19T07:00:48;27.70;;;13.35;;
27213;SDS011;14723;55.814;37.460;2023-01-19T07:03:57;28.45;;;13.98;;
27213;SDS011;14723;55.814;37.460;2023-01-19T07:07:02;29.05;;;14.65;;
27213;SDS011;14723;55.814;37.460;2023-01-19T07:10:08;30.60;;;14.15;;
27213;SDS011;14723;55.814;37.460;2023-01-19T07:13:16;27.10;;;13.15;;
27213;SDS011;14723;55.814;37.460;2023-01-19T07:16:23;30.55;;;13.55;;
27213;SDS011;14723;55.814;37.460;2023-01-19T07:19:31;27.83;;;13.40;;
27213;SDS011;14723;55.814;37.460;2023-01-19T07:22:36;30.92;;;13.70;;
27213;SDS011;14723;55.814;37.460;2023-01-19T07:25:43;30.88;;;14.30;;
27213;SDS011;14723;55.814;37.460;2023-01-19T07:28:48;31.90;;;14.52;;
27213;SDS011;14723;55.814;37.460;2023-01-19T07:31:54;24.02;;;12.77;;
27213;SDS011;14723;55.814;37.460;2023-01-19T07:35:02;29.55;;;13.35;;
27213;SDS011;14723;55.814;37.460;2023-01-19T07:38:07;28.90;;;13.32;;
27213;SDS011;14723;55.814;37.460;2023-01-19T07:41:13;29.02;;;14.23;;
27213;SDS011;14723;55.814;37.460;2023-01-19T07:44:19;31.15;;;13.85;;
27213;SDS011;14723;55.814;37.460;2023-01-19T07:47:24;27.65;;;13.43;;
27213;SDS011;14723;55.814;37.460;2023-01-19T07:50:33;25.88;;;13.05;;
27213;SDS011;14723;55.814;37.460;2023-01-19T07:53:38;28.67;;;13.63;;
27213;SDS011;14723;55.814;37.460;2023-01-19T07:56:44;29.00;;;13.88;;
27213;SDS011;14723;55.814;37.460;2023-01-19T07:59:49;27.50;;;13.65;;
27213;SDS011;14723;55.814;37.460;2023-01-19T08:02:57;40.30;;;14.48;;
27213;SDS011;14723;55.814;37.460;2023-01-19T08:06:09;25.88;;;13.48;;
27213;SDS011;14723;55.814;37.460;2023-01-19T08:09:17;26.88;;;13.02;;
27213;SDS011;14723;55.814;37.460;2023-01-19T08:12:22;28.13;;;13.38;;
27213;SDS011;14723;55.814;37.460;2023-01-19T08:15:27;26.55;;;13.65;;
27213;SDS011;14723;55.814;37.460;2023-01-19T08:18:33;28.90;;;13.75;;
27213;SDS011;14723;55.814;37.460;2023-01-19T08:21:41;26.65;;;14.70;;
27213;SDS011;14723;55.814;37.460;2023-01-19T08:24:47;29.40;;;14.15;;
27213;SDS011;14723;55.814;37.460;2023-01-19T08:27:53;29.63;;;14.10;;
27213;SDS011;14723;55.814;37.460;2023-01-19T08:30:58;28.92;;;13.90;;
27213;SDS011;14723;55.814;37.460;2023-01-19T08:34:20;33.38;;;14.20;;
27213;SDS011;14723;55.814;37.460;2023-01-19T08:37:28;32.05;;;14.95;;
27213;SDS011;14723;55.814;37.460;2023-01-19T08:40:36;28.23;;;14.07;;
27213;SDS011;14723;55.814;37.460;2023-01-19T08:43:42;30.20;;;14.77;;
27213;SDS011;14723;55.814;37.460;2023-01-19T08:46:48;26.63;;;13.15;;
27213;SDS011;14723;55.814;37.460;2023-01-19T08:49:53;29.50;;;13.60;;
27213;SDS011;14723;55.814;37.460;2023-01-19T08:53:01;27.17;;;14.32;;
27213;SDS011;14723;55.814;37.460;2023-01-19T08:56:08;27.40;;;13.98;;
27213;SDS011;14723;55.814;37.460;2023-01-19T08:59:27;31.80;;;13.65;;
27213;SDS011;14723;55.814;37.460;2023-01-19T09:02:32;36.17;;;14.77;;
27213;SDS011;14723;55.814;37.460;2023-01-19T09:05:37;26.85;;;13.90;;
27213;SDS011;14723;55.814;37.460;2023-01-19T09:08:43;26.25;;;14.95;;
27213;SDS011;14723;55.814;37.460;2023-01-19T09:11:48;32.58;;;14.27;;
27213;SDS011;14723;55.814;37.460;2023-01-19T09:14:56;24.80;;;13.82;;
27213;SDS011;14723;55.814;37.460;2023-01-19T09:18:04;32.58;;;14.88;;
27213;SDS011;14723;55.814;37.460;2023-01-19T09:21:11;35.63;;;16.38;;
27213;SDS011;14723;55.814;37.460;2023-01-19T09:24:17;27.60;;;13.98;;
27213;SDS011;14723;55.814;37.460;2023-01-19T09:27:22;26.52;;;14.35;;
27213;SDS011;14723;55.814;37.460;2023-01-19T09:30:30;30.33;;;14.82;;
27213;SDS011;14723;55.814;37.460;2023-01-19T09:33:38;34.58;;;15.80;;
27213;SDS011;14723;55.814;37.460;2023-01-19T09:36:45;30.30;;;14.77;;
27213;SDS011;14723;55.814;37.460;2023-01-19T09:39:50;31.75;;;14.88;;
27213;SDS011;14723;55.814;37.460;2023-01-19T09:42:59;32.60;;;14.43;;
27213;SDS011;14723;55.814;37.460;2023-01-19T09:46:12;30.02;;;15.80;;
27213;SDS011;14723;55.814;37.460;2023-01-19T09:49:20;31.75;;;14.63;;
27213;SDS011;14723;55.814;37.460;2023-01-19T09:52:30;36.90;;;16.35;;
27213;SDS011;14723;55.814;37.460;2023-01-19T09:55:36;37.30;;;16.70;;
27213;SDS011;14723;55.814;37.460;2023-01-19T09:58:42;29.42;;;14.77;;
27213;SDS011;14723;55.814;37.460;2023-01-19T10:01:56;32.42;;;14.70;;
27213;SDS011;14723;55.814;37.460;2023-01-19T10:05:07;31.10;;;15.70;;
27213;SDS011;14723;55.814;37.460;2023-01-19T10:08:17;33.50;;;16.27;;
27213;SDS011;14723;55.814;37.460;2023-01-19T10:11:25;31.23;;;16.48;;
27213;SDS011;14723;55.814;37.460;2023-01-19T10:14:52;31.83;;;15.00;;
27213;SDS011;14723;55.814;37.460;2023-01-19T10:18:08;33.35;;;16.15;;
27213;SDS011;14723;55.814;37.460;2023-01-19T10:21:17;35.85;;;15.05;;
27213;SDS011;14723;55.814;37.460;2023-01-19T10:24:24;39.75;;;15.63;;
27213;SDS011;14723;55.814;37.460;2023-01-19T10:27:31;42.60;;;16.17;;
27213;SDS011;14723;55.814;37.460;2023-01-19T10:30:38;32.92;;;16.08;;
27213;SDS011;14723;55.814;37.460;2023-01-19T10:33:50;36.17;;;16.30;;
27213;SDS011;14723;55.814;37.460;2023-01-19T10:36:57;36.53;;;16.58;;
27213;SDS011;14723;55.814;37.460;2023-01-19T10:40:06;33.53;;;15.95;;
27213;SDS011;14723;55.814;37.460;2023-01-19T10:46:43;34.42;;;15.90;;
27213;SDS011;14723;55.814;37.460;2023-01-19T10:49:51;34.45;;;16.33;;
27213;SDS011;14723;55.814;37.460;2023-01-19T10:52:56;36.67;;;16.90;;
27213;SDS011;14723;55.814;37.460;2023-01-19T10:56:10;36.90;;;16.08;;
27213;SDS011;14723;55.814;37.460;2023-01-19T10:59:28;39.55;;;16.92;;
27213;SDS011;14723;55.814;37.460;2023-01-19T11:02:34;32.58;;;15.80;;
27213;SDS011;14723;55.814;37.460;2023-01-19T11:05:42;36.70;;;16.77;;
27213;SDS011;14723;55.814;37.460;2023-01-19T11:11:53;37.75;;;15.85;;
27213;SDS011;14723;55.814;37.460;2023-01-19T11:14:59;34.78;;;15.85;;
27213;SDS011;14723;55.814;37.460;2023-01-19T11:18:21;34.97;;;16.77;;
27213;SDS011;14723;55.814;37.460;2023-01-19T11:21:30;36.25;;;16.27;;
27213;SDS011;14723;55.814;37.460;2023-01-19T11:27:46;36.10;;;16.20;;
27213;SDS011;14723;55.814;37.460;2023-01-19T11:30:53;41.13;;;17.27;;
27213;SDS011;14723;55.814;37.460;2023-01-19T11:33:59;41.88;;;17.15;;
27213;SDS011;14723;55.814;37.460;2023-01-19T11:40:32;35.38;;;17.05;;
27213;SDS011;14723;55.814;37.460;2023-01-19T11:43:38;42.22;;;19.00;;
27213;SDS011;14723;55.814;37.460;2023-01-19T11:46:52;45.67;;;18.65;;
27213;SDS011;14723;55.814;37.460;2023-01-19T11:50:00;41.00;;;18.48;;
27213;SDS011;14723;55.814;37.460;2023-01-19T11:56:14;40.95;;;17.92;;
27213;SDS011;14723;55.814;37.460;2023-01-19T11:59:21;38.95;;;17.17;;
27213;SDS011;14723;55.814;37.460;2023-01-19T12:02:27;46.92;;;18.02;;
27213;SDS011;14723;55.814;37.460;2023-01-19T12:05:34;44.55;;;17.92;;
27213;SDS011;14723;55.814;37.460;2023-01-19T12:08:42;43.53;;;18.75;;
27213;SDS011;14723;55.814;37.460;2023-01-19T12:11:52;42.95;;;18.13;;
27213;SDS011;14723;55.814;37.460;2023-01-19T12:15:00;34.63;;;16.65;;
27213;SDS011;14723;55.814;37.460;2023-01-19T12:18:09;45.42;;;18.25;;
27213;SDS011;14723;55.814;37.460;2023-01-19T12:21:16;41.58;;;19.08;;
27213;SDS011;14723;55.814;37.460;2023-01-19T12:24:25;45.03;;;18.00;;
27213;SDS011;14723;55.814;37.460;2023-01-19T12:30:39;36.55;;;16.70;;
27213;SDS011;14723;55.814;37.460;2023-01-19T12:33:45;41.42;;;17.88;;
27213;SDS011;14723;55.814;37.460;2023-01-19T12:36:50;44.28;;;18.70;;
27213;SDS011;14723;55.814;37.460;2023-01-19T12:39:56;48.15;;;18.50;;
27213;SDS011;14723;55.814;37.460;2023-01-19T12:43:04;37.17;;;17.02;;
27213;SDS011;14723;55.814;37.460;2023-01-19T12:46:22;39.30;;;16.77;;
27213;SDS011;14723;55.814;37.460;2023-01-19T12:49:32;41.45;;;17.20;;
27213;SDS011;14723;55.814;37.460;2023-01-19T12:52:39;43.80;;;19.13;;
27213;SDS011;14723;55.814;37.460;2023-01-19T12:55:56;43.70;;;17.17;;
27213;SDS011;14723;55.814;37.460;2023-01-19T12:59:02;41.78;;;17.88;;
27213;SDS011;14723;55.814;37.460;2023-01-19T13:09:19;45.33;;;17.45;;
27213;SDS011;14723;55.814;37.460;2023-01-19T13:12:32;43.45;;;18.27;;
27213;SDS011;14723;55.814;37.460;2023-01-19T13:15:37;41.00;;;18.45;;
27213;SDS011;14723;55.814;37.460;2023-01-19T13:18:45;42.08;;;17.70;;
27213;SDS011;14723;55.814;37.460;2023-01-19T13:21:51;43.45;;;18.55;;
27213;SDS011;14723;55.814;37.460;2023-01-19T13:25:06;43.80;;;18.00;;
27213;SDS011;14723;55.814;37.460;2023-01-19T13:28:12;46.58;;;17.63;;
27213;SDS011;14723;55.814;37.460;2023-01-19T13:31:18;44.95;;;19.13;;
27213;SDS011;14723;55.814;37.460;2023-01-19T13:34:24;44.83;;;18.65;;
27213;SDS011;14723;55.814;37.460;2023-01-19T13:37:32;43.80;;;18.95;;
27213;SDS011;14723;55.814;37.460;2023-01-19T13:40:41;50.25;;;19.70;;
27213;SDS011;14723;55.814;37.460;2023-01-19T13:43:47;43.85;;;19.30;;
27213;SDS011;14723;55.814;37.460;2023-01-19T13:46:53;46.95;;;19.13;;
27213;SDS011;14723;55.814;37.460;2023-01-19T13:50:00;46.22;;;18.60;;
27213;SDS011;14723;55.814;37.460;2023-01-19T13:53:18;56.65;;;20.95;;
27213;SDS011;14723;55.814;37.460;2023-01-19T13:56:28;47.75;;;19.88;;
27213;SDS011;14723;55.814;37.460;2023-01-19T13:59:34;55.95;;;21.88;;
27213;SDS011;14723;55.814;37.460;2023-01-19T14:02:39;51.35;;;21.55;;
27213;SDS011;14723;55.814;37.460;2023-01-19T14:05:47;55.13;;;21.95;;
27213;SDS011;14723;55.814;37.460;2023-01-19T14:12:28;51.85;;;21.00;;
27213;SDS011;14723;55.814;37.460;2023-01-19T14:15:34;51.58;;;20.08;;
27213;SDS011;14723;55.814;37.460;2023-01-19T14:18:39;52.75;;;19.80;;
27213;SDS011;14723;55.814;37.460;2023-01-19T14:21:45;56.80;;;20.23;;
27213;SDS011;14723;55.814;37.460;2023-01-19T14:28:32;48.42;;;19.40;;
27213;SDS011;14723;55.814;37.460;2023-01-19T14:31:42;49.35;;;19.83;;
27213;SDS011;14723;55.814;37.460;2023-01-19T14:34:49;50.05;;;21.08;;
27213;SDS011;14723;55.814;37.460;2023-01-19T14:37:55;47.20;;;18.73;;
27213;SDS011;14723;55.814;37.460;2023-01-19T14:41:00;46.50;;;18.15;;
27213;SDS011;14723;55.814;37.460;2023-01-19T14:44:14;46.95;;;18.75;;
27213;SDS011;14723;55.814;37.460;2023-01-19T14:47:25;49.50;;;18.83;;
27213;SDS011;14723;55.814;37.460;2023-01-19T14:50:32;43.65;;;18.42;;
27213;SDS011;14723;55.814;37.460;2023-01-19T14:53:38;42.63;;;17.80;;
27213;SDS011;14723;55.814;37.460;2023-01-19T14:56:52;34.25;;;16.23;;
27213;SDS011;14723;55.814;37.460;2023-01-19T15:00:00;42.83;;;17.15;;
27213;SDS011;14723;55.814;37.460;2023-01-19T15:06:12;39.97;;;17.33;;
27213;SDS011;14723;55.814;37.460;2023-01-19T15:09:18;41.00;;;17.23;;
27213;SDS011;14723;55.814;37.460;2023-01-19T15:12:23;39.80;;;18.40;;
27213;SDS011;14723;55.814;37.460;2023-01-19T15:15:33;41.95;;;17.48;;
27213;SDS011;14723;55.814;37.460;2023-01-19T15:21:43;43.30;;;17.83;;
27213;SDS011;14723;55.814;37.460;2023-01-19T15:24:49;41.33;;;17.70;;
27213;SDS011;14723;55.814;37.460;2023-01-19T15:27:58;40.28;;;18.30;;
27213;SDS011;14723;55.814;37.460;2023-01-19T15:31:08;39.00;;;17.42;;
27213;SDS011;14723;55.814;37.460;2023-01-19T15:34:16;41.70;;;17.35;;
27213;SDS011;14723;55.814;37.460;2023-01-19T15:37:21;32.88;;;15.15;;
27213;SDS011;14723;55.814;37.460;2023-01-19T15:40:26;31.42;;;15.27;;
27213;SDS011;14723;55.814;37.460;2023-01-19T15:43:32;31.13;;;15.52;;
27213;SDS011;14723;55.814;37.460;2023-01-19T15:46:40;31.77;;;14.95;;
27213;SDS011;14723;55.814;37.460;2023-01-19T15:49:46;33.88;;;14.30;;
27213;SDS011;14723;55.814;37.460;2023-01-19T15:52:51;33.00;;;14.60;;
27213;SDS011;14723;55.814;37.460;2023-01-19T15:55:57;30.67;;;14.50;;
27213;SDS011;14723;55.814;37.460;2023-01-19T15:59:02;28.45;;;13.82;;
27213;SDS011;14723;55.814;37.460;2023-01-19T16:02:10;30.77;;;14.63;;
27213;SDS011;14723;55.814;37.460;2023-01-19T16:05:16;29.13;;;15.10;;
27213;SDS011;14723;55.814;37.460;2023-01-19T16:08:27;28.77;;;14.20;;
27213;SDS011;14723;55.814;37.460;2023-01-19T16:11:33;34.17;;;15.77;;
27213;SDS011;14723;55.814;37.460;2023-01-19T16:14:38;32.72;;;15.48;;
27213;SDS011;14723;55.814;37.460;2023-01-19T16:17:46;33.95;;;15.57;;
27213;SDS011;14723;55.814;37.460;2023-01-19T16:20:52;33.47;;;16.65;;
27213;SDS011;14723;55.814;37.460;2023-01-19T16:23:57;37.85;;;16.27;;
27213;SDS011;14723;55.814;37.460;2023-01-19T16:27:03;28.90;;;14.63;;
27213;SDS011;14723;55.814;37.460;2023-01-19T16:30:10;29.27;;;14.20;;
27213;SDS011;14723;55.814;37.460;2023-01-19T16:33:20;29.88;;;14.40;;
27213;SDS011;14723;55.814;37.460;2023-01-19T16:36:26;31.75;;;16.02;;
27213;SDS011;14723;55.814;37.460;2023-01-19T16:39:32;30.08;;;14.02;;
27213;SDS011;14723;55.814;37.460;2023-01-19T16:42:37;27.80;;;13.68;;
27213;SDS011;14723;55.814;37.460;2023-01-19T16:45:54;31.27;;;14.82;;
27213;SDS011;14723;55.814;37.460;2023-01-19T16:49:03;26.02;;;13.63;;
27213;SDS011;14723;55.814;37.460;2023-01-19T16:52:09;25.27;;;12.93;;
27213;SDS011;14723;55.814;37.460;2023-01-19T16:55:15;27.92;;;13.68;;
27213;SDS011;14723;55.814;37.460;2023-01-19T16:58:20;25.08;;;13.57;;
27213;SDS011;14723;55.814;37.460;2023-01-19T17:01:26;30.00;;;14.77;;
27213;SDS011;14723;55.814;37.460;2023-01-19T17:04:35;24.67;;;13.95;;
27213;SDS011;14723;55.814;37.460;2023-01-19T17:07:40;25.33;;;14.18;;
27213;SDS011;14723;55.814;37.460;2023-01-19T17:10:46;28.52;;;14.38;;
27213;SDS011;14723;55.814;37.460;2023-01-19T17:13:52;30.08;;;13.88;;
27213;SDS011;14723;55.814;37.460;2023-01-19T17:16:58;29.52;;;14.10;;
27213;SDS011;14723;55.814;37.460;2023-01-19T17:20:07;26.08;;;14.63;;
27213;SDS011;14723;55.814;37.460;2023-01-19T17:23:13;26.55;;;12.50;;
27213;SDS011;14723;55.814;37.460;2023-01-19T17:26:19;30.38;;;14.18;;
27213;SDS011;14723;55.814;37.460;2023-01-19T17:29:26;24.80;;;13.03;;
27213;SDS011;14723;55.814;37.460;2023-01-19T17:32:31;25.90;;;13.68;;
27213;SDS011;14723;55.814;37.460;2023-01-19T17:35:40;24.75;;;12.05;;
27213;SDS011;14723;55.814;37.460;2023-01-19T17:38:47;28.15;;;12.82;;
27213;SDS011;14723;55.814;37.460;2023-01-19T17:41:53;25.27;;;13.32;;
27213;SDS011;14723;55.814;37.460;2023-01-19T17:44:58;29.65;;;14.02;;
27213;SDS011;14723;55.814;37.460;2023-01-19T17:48:05;31.60;;;14.73;;
27213;SDS011;14723;55.814;37.460;2023-01-19T17:51:13;30.50;;;14.48;;
27213;SDS011;14723;55.814;37.460;2023-01-19T17:54:18;33.58;;;15.57;;
27213;SDS011;14723;55.814;37.460;2023-01-19T17:57:23;34.95;;;15.60;;
27213;SDS011;14723;55.814;37.460;2023-01-19T18:00:29;32.80;;;15.25;;
27213;SDS011;14723;55.814;37.460;2023-01-19T18:03:34;35.70;;;15.80;;
27213;SDS011;14723;55.814;37.460;2023-01-19T18:06:43;37.47;;;17.10;;
27213;SDS011;14723;55.814;37.460;2023-01-19T18:09:49;41.08;;;18.08;;
27213;SDS011;14723;55.814;37.460;2023-01-19T18:12:57;35.63;;;17.77;;
27213;SDS011;14723;55.814;37.460;2023-01-19T18:16:03;40.83;;;17.10;;
27213;SDS011;14723;55.814;37.460;2023-01-19T18:19:09;39.33;;;16.85;;
27213;SDS011;14723;55.814;37.460;2023-01-19T18:22:17;36.97;;;17.45;;
27213;SDS011;14723;55.814;37.460;2023-01-19T18:25:23;40.35;;;17.83;;
27213;SDS011;14723;55.814;37.460;2023-01-19T18:28:28;40.13;;;17.60;;
27213;SDS011;14723;55.814;37.460;2023-01-19T18:31:34;38.85;;;17.60;;
27213;SDS011;14723;55.814;37.460;2023-01-19T18:34:39;41.50;;;17.65;;
27213;SDS011;14723;55.814;37.460;2023-01-19T18:37:47;37.15;;;16.92;;
27213;SDS011;14723;55.814;37.460;2023-01-19T18:40:59;41.72;;;18.23;;
27213;SDS011;14723;55.814;37.460;2023-01-19T18:44:06;42.85;;;18.20;;
27213;SDS011;14723;55.814;37.460;2023-01-19T18:47:11;47.67;;;18.90;;